Time;durP1;ratioP1;P1;durP2;ratioP2;P2;SDS_P1;SDS_P2;PMS_P1;PMS_P2;Temp;Humidity;BMP_temperature;BMP_pressure;BME280_temperature;BME280_humidity;BME280_pressure;Samples;Min_cycle;Max_cycle;Signal;HPM_P1;HPM_P2
2021/07/08 09:17:42;;;;;;;5.72;2.12;;;;;;;26.75;53.17;98845.22;1871615;76;21969;-64
2021/07/08 09:20:12;;;;;;;3.85;2.10;;;;;;;26.69;53.15;98834.89;1827728;78;21006;-66
2021/07/08 09:22:39;;;;;;;8.03;2.10;;;;;;;26.70;53.71;98840.03;1827989;78;21083;-58
2021/07/08 09:25:26;;;;;;;4.72;2.00;;;;;;;26.78;53.25;98837.58;1827775;78;20864;-60
2021/07/08 09:28:21;;;;;;;4.60;1.92;;;;;;;26.85;52.30;98839.03;1827852;78;20849;-58
2021/07/08 09:31:04;;;;;;;7.37;2.20;;;;;;;26.89;51.70;98836.33;1827900;78;20976;-62
2021/07/08 09:33:40;;;;;;;8.18;1.82;;;;;;;26.98;52.82;98840.36;1827898;78;20963;-64
2021/07/08 09:36:14;;;;;;;7.40;2.20;;;;;;;27.11;51.74;98831.23;1828054;78;21155;-62
2021/07/08 09:38:47;;;;;;;6.65;1.95;;;;;;;27.22;51.78;98840.95;1791325;80;21394;-60
2021/07/08 09:41:22;;;;;;;8.23;2.02;;;;;;;27.34;50.85;98844.80;1791395;80;20923;-63
2021/07/08 09:43:49;;;;;;;5.15;2.08;;;;;;;27.39;50.02;98832.11;1791831;80;21635;-65
2021/07/08 09:46:16;;;;;;;11.55;2.10;;;;;;;27.42;50.92;98839.00;1791397;80;20907;-62
2021/07/08 09:49:05;;;;;;;6.42;1.72;;;;;;;27.52;50.65;98838.88;1791284;80;21415;-62
2021/07/08 09:51:32;;;;;;;10.48;1.95;;;;;;;27.61;49.31;98837.95;1791477;80;20927;-61
2021/07/08 09:54:13;;;;;;;9.33;1.80;;;;;;;27.70;48.84;98835.66;1791264;80;20986;-61
2021/07/08 09:56:45;;;;;;;5.45;1.75;;;;;;;27.75;48.47;98832.55;1790296;80;20855;-66
2021/07/08 09:59:13;;;;;;;6.97;2.27;;;;;;;27.78;49.48;98831.79;1791483;80;20966;-67
2021/07/08 10:01:43;;;;;;;7.90;2.05;;;;;;;27.84;48.57;98833.00;1791505;80;21086;-60
2021/07/08 10:04:11;;;;;;;3.15;1.87;;;;;;;27.86;49.26;98823.80;1791305;80;20962;-62
2021/07/08 10:06:38;;;;;;;6.78;2.35;;;;;;;27.91;49.54;98830.28;1791386;80;20875;-61
2021/07/08 10:09:06;;;;;;;11.03;1.98;;;;;;;27.94;49.57;98830.91;1791389;80;21452;-59
2021/07/08 10:11:33;;;;;;;9.43;2.45;;;;;;;27.95;49.01;98828.36;1791379;80;20935;-60
2021/07/08 10:14:03;;;;;;;7.58;2.20;;;;;;;28.04;49.51;98831.59;1799470;79;20936;-62
2021/07/08 10:16:31;;;;;;;4.03;2.10;;;;;;;28.09;48.69;98827.09;1783808;80;20945;-63
2021/07/08 10:19:06;;;;;;;2.50;1.70;;;;;;;28.13;47.71;98833.98;1776299;80;20922;-64
2021/07/08 10:21:32;;;;;;;;;;;;;;;28.14;47.49;98830.86;1774757;80;21461;-61
2021/07/08 10:24:01;;;;;;;6.05;1.92;;;;;;;28.12;48.87;98824.92;1771126;80;20107;-62
2021/07/08 10:26:28;;;;;;;5.97;1.90;;;;;;;28.12;48.87;98824.92;1763752;81;21089;-64
2021/07/08 10:28:56;;;;;;;5.20;1.90;;;;;;;28.16;48.15;98830.47;1766260;81;20886;-64
2021/07/08 10:31:24;;;;;;;12.73;2.10;;;;;;;28.18;47.90;98824.77;1766197;81;20877;-61
2021/07/08 10:34:17;;;;;;;7.85;1.75;;;;;;;28.24;47.93;98822.45;1766371;81;21505;-66
2021/07/08 10:36:48;;;;;;;8.65;1.90;;;;;;;28.30;47.76;98825.81;1764680;81;21007;-62
2021/07/08 10:39:19;;;;;;;6.65;2.30;;;;;;;28.27;47.43;98827.95;1772559;81;21056;-61
2021/07/08 10:41:58;;;;;;;5.03;2.37;;;;;;;28.24;47.09;98827.95;1772372;81;20936;-63
2021/07/08 10:44:41;;;;;;;9.43;1.80;;;;;;;28.26;47.59;98822.23;1772199;81;21499;-60
2021/07/08 10:47:29;;;;;;;3.85;1.67;;;;;;;28.30;47.13;98827.19;1772280;81;21503;-62
2021/07/08 10:49:56;;;;;;;7.08;2.02;;;;;;;28.32;46.85;98822.08;1777544;80;21494;-62
2021/07/08 10:52:44;;;;;;;4.15;1.65;;;;;;;28.34;46.88;98815.59;1726974;82;21128;-64
2021/07/08 10:55:13;;;;;;;9.90;2.20;;;;;;;28.33;47.01;98816.75;1722387;83;20900;-61
2021/07/08 10:57:40;;;;;;;2.25;1.60;;;;;;;28.33;47.01;98816.75;1723265;83;20941;-65
2021/07/08 11:00:09;;;;;;;8.90;1.92;;;;;;;28.37;47.37;98807.94;1744834;82;20995;-63
2021/07/08 11:02:48;;;;;;;7.40;2.15;;;;;;;28.50;47.71;98810.34;1760032;81;21473;-62
2021/07/08 11:05:16;;;;;;;3.33;1.75;;;;;;;28.61;47.06;98815.31;1787415;80;21401;-62
2021/07/08 11:07:47;;;;;;;4.22;1.80;;;;;;;28.67;46.20;98812.37;1789110;80;20880;-62
2021/07/08 11:10:19;;;;;;;3.80;1.85;;;;;;;28.70;46.12;98811.59;1787126;80;21041;-65
2021/07/08 11:12:47;;;;;;;7.53;2.08;;;;;;;28.67;46.32;98810.99;1761900;80;20951;-65
2021/07/08 11:15:16;;;;;;;10.72;2.27;;;;;;;28.68;46.44;98808.45;1787083;80;20923;-63
2021/07/08 11:17:48;;;;;;;8.05;1.87;;;;;;;28.68;46.75;98815.34;1786999;80;22313;-64
2021/07/08 11:20:32;;;;;;;4.78;1.90;;;;;;;28.70;47.16;98806.09;1787465;80;21030;-64
2021/07/08 11:23:43;;;;;;;;;;;;;;;28.73;46.81;98806.69;1789856;80;20911;-63
2021/07/08 11:26:06;;;;;;;3.30;1.70;;;;;;;28.83;47.03;98804.55;1787105;80;20430;-62
2021/07/08 11:28:33;;;;;;;4.80;1.90;;;;;;;28.88;46.36;98800.00;1787159;80;20915;-60
2021/07/08 11:31:07;;;;;;;8.10;1.90;;;;;;;28.94;45.76;98801.21;1787166;80;21201;-61
2021/07/08 11:33:37;;;;;;;3.83;1.70;;;;;;;29.00;45.47;98799.63;1787488;80;21371;-64
2021/07/08 11:36:12;;;;;;;6.53;2.05;;;;;;;29.04;44.40;98796.31;1780101;80;20873;-62
2021/07/08 11:38:47;;;;;;;5.17;1.90;;;;;;;29.12;44.62;98793.73;1777066;80;21446;-65
2021/07/08 11:41:13;;;;;;;6.60;2.00;;;;;;;29.25;45.42;98793.58;1776373;80;20884;-62
2021/07/08 11:43:40;;;;;;;5.22;2.10;;;;;;;29.40;45.24;98793.76;1777160;80;21368;-61
2021/07/08 11:46:13;;;;;;;4.72;1.75;;;;;;;29.57;43.98;98791.58;1777020;80;20936;-62
2021/07/08 11:48:42;;;;;;;4.20;1.72;;;;;;;29.71;43.76;98783.27;1777309;80;20906;-59
2021/07/08 11:51:32;;;;;;;7.47;2.00;;;;;;;29.91;44.37;98788.38;1777416;80;21012;-61
2021/07/08 11:53:59;;;;;;;4.10;1.77;;;;;;;30.07;42.92;98786.75;1777228;80;20936;-62
2021/07/08 11:56:26;;;;;;;4.83;1.37;;;;;;;30.21;42.85;98788.08;1777072;80;21108;-65
2021/07/08 11:58:55;;;;;;;3.10;1.40;;;;;;;30.37;42.34;98787.63;1777060;80;21576;-60
2021/07/08 12:01:22;;;;;;;5.37;1.60;;;;;;;30.50;41.72;98787.38;1777294;80;20848;-60
2021/07/08 12:03:56;;;;;;;4.65;1.57;;;;;;;30.61;41.48;98785.34;1777165;80;20885;-60
2021/07/08 12:06:28;;;;;;;4.05;1.50;;;;;;;30.71;42.43;98787.25;1777666;80;21419;-63
2021/07/08 12:09:05;;;;;;;;;;;;;;;30.95;41.81;98785.55;1779629;80;21447;-59
2021/07/08 12:11:33;;;;;;;2.95;1.90;;;;;;;31.10;41.60;98788.38;1776738;80;20097;-60
